sensor_id;sensor_type;location;lat;lon;timestamp;pressure;altitude;pressure_sealevel;temperature;humidity
69796;BME280;57073;45.650;9.612;2024-03-02T00:04:07;98319.78;;;9.60;75.01
69796;BME280;57073;45.650;9.612;2024-03-02T00:09:09;98320.06;;;9.58;74.75
69796;BME280;57073;45.650;9.612;2024-03-02T00:14:12;98311.41;;;9.56;74.68
69796;BME280;57073;45.650;9.612;2024-03-02T00:19:12;98315.84;;;9.40;74.61
69796;BME280;57073;45.650;9.612;2024-03-02T00:24:33;98316.66;;;9.41;75.11
69796;BME280;57073;45.650;9.612;2024-03-02T00:29:34;98327.41;;;9.41;75.84
69796;BME280;57073;45.650;9.612;2024-03-02T00:34:35;98325.53;;;9.41;75.91
69796;BME280;57073;45.650;9.612;2024-03-02T00:39:36;98328.09;;;9.53;74.92
69796;BME280;57073;45.650;9.612;2024-03-02T00:44:36;98326.69;;;9.51;74.84
69796;BME280;57073;45.650;9.612;2024-03-02T00:49:37;98331.84;;;9.52;75.22
69796;BME280;57073;45.650;9.612;2024-03-02T00:54:38;98328.03;;;9.48;74.62
69796;BME280;57073;45.650;9.612;2024-03-02T00:59:38;98322.47;;;9.55;74.70
69796;BME280;57073;45.650;9.612;2024-03-02T01:04:38;98330.78;;;9.53;74.14
69796;BME280;57073;45.650;9.612;2024-03-02T01:09:38;98320.72;;;9.43;74.63
69796;BME280;57073;45.650;9.612;2024-03-02T01:14:39;98323.47;;;9.49;75.07
69796;BME280;57073;45.650;9.612;2024-03-02T01:19:41;98317.47;;;9.41;75.53
69796;BME280;57073;45.650;9.612;2024-03-02T01:24:42;98317.28;;;9.48;75.55
69796;BME280;57073;45.650;9.612;2024-03-02T01:29:42;98320.53;;;9.50;75.14
69796;BME280;57073;45.650;9.612;2024-03-02T01:34:43;98320.22;;;9.46;74.10
69796;BME280;57073;45.650;9.612;2024-03-02T01:39:43;98316.84;;;9.34;74.28
69796;BME280;57073;45.650;9.612;2024-03-02T01:44:43;98319.84;;;9.38;74.66
69796;BME280;57073;45.650;9.612;2024-03-02T01:49:44;98317.72;;;9.40;74.43
69796;BME280;57073;45.650;9.612;2024-03-02T01:54:44;98320.69;;;9.38;75.07
69796;BME280;57073;45.650;9.612;2024-03-02T01:59:45;98323.16;;;9.45;74.92
69796;BME280;57073;45.650;9.612;2024-03-02T02:04:47;98313.34;;;9.34;75.68
69796;BME280;57073;45.650;9.612;2024-03-02T02:09:48;98317.94;;;9.33;76.03
69796;BME280;57073;45.650;9.612;2024-03-02T02:14:49;98318.78;;;9.39;75.01
69796;BME280;57073;45.650;9.612;2024-03-02T02:19:52;98313.28;;;9.28;75.39
69796;BME280;57073;45.650;9.612;2024-03-02T02:24:52;98307.66;;;9.30;75.71
69796;BME280;57073;45.650;9.612;2024-03-02T02:29:53;98309.25;;;9.26;75.54
69796;BME280;57073;45.650;9.612;2024-03-02T02:34:53;98304.09;;;9.24;75.00
69796;BME280;57073;45.650;9.612;2024-03-02T02:39:54;98303.56;;;9.22;75.39
69796;BME280;57073;45.650;9.612;2024-03-02T02:44:54;98300.31;;;9.20;76.43
69796;BME280;57073;45.650;9.612;2024-03-02T02:49:54;98300.41;;;9.31;75.16
69796;BME280;57073;45.650;9.612;2024-03-02T02:54:55;98300.06;;;9.22;75.14
69796;BME280;57073;45.650;9.612;2024-03-02T02:59:55;98301.66;;;9.23;74.71
69796;BME280;57073;45.650;9.612;2024-03-02T03:04:56;98305.47;;;9.27;75.37
69796;BME280;57073;45.650;9.612;2024-03-02T03:09:57;98301.84;;;9.16;76.22
69796;BME280;57073;45.650;9.612;2024-03-02T03:14:58;98306.97;;;9.18;75.19
69796;BME280;57073;45.650;9.612;2024-03-02T03:19:58;98307.50;;;9.15;75.87
69796;BME280;57073;45.650;9.612;2024-03-02T03:24:58;98299.69;;;9.13;75.91
69796;BME280;57073;45.650;9.612;2024-03-02T03:29:59;98311.19;;;9.08;76.11
69796;BME280;57073;45.650;9.612;2024-03-02T03:35:00;98302.94;;;9.15;75.52
69796;BME280;57073;45.650;9.612;2024-03-02T03:40:03;98305.06;;;9.13;76.26
69796;BME280;57073;45.650;9.612;2024-03-02T03:45:10;98313.06;;;9.08;76.70
69796;BME280;57073;45.650;9.612;2024-03-02T03:50:10;98309.06;;;9.11;76.45
69796;BME280;57073;45.650;9.612;2024-03-02T03:55:10;98312.31;;;9.13;76.27
69796;BME280;57073;45.650;9.612;2024-03-02T04:00:11;98316.00;;;9.06;76.19
69796;BME280;57073;45.650;9.612;2024-03-02T04:05:12;98313.25;;;9.01;75.39
69796;BME280;57073;45.650;9.612;2024-03-02T04:10:12;98317.81;;;9.01;76.69
69796;BME280;57073;45.650;9.612;2024-03-02T04:15:12;98326.44;;;9.03;76.46
69796;BME280;57073;45.650;9.612;2024-03-02T04:20:13;98327.25;;;9.03;76.27
69796;BME280;57073;45.650;9.612;2024-03-02T04:25:13;98341.25;;;9.05;77.66
69796;BME280;57073;45.650;9.612;2024-03-02T04:30:14;98347.47;;;9.06;76.96
69796;BME280;57073;45.650;9.612;2024-03-02T04:35:14;98349.59;;;9.04;77.39
69796;BME280;57073;45.650;9.612;2024-03-02T04:40:15;98355.78;;;9.04;77.15
69796;BME280;57073;45.650;9.612;2024-03-02T04:45:15;98346.63;;;9.05;77.00
69796;BME280;57073;45.650;9.612;2024-03-02T04:50:16;98357.47;;;9.11;77.65
69796;BME280;57073;45.650;9.612;2024-03-02T04:55:16;98358.22;;;9.06;77.18
69796;BME280;57073;45.650;9.612;2024-03-02T05:00:16;98360.91;;;9.06;77.20
69796;BME280;57073;45.650;9.612;2024-03-02T05:05:17;98361.66;;;9.01;77.11
69796;BME280;57073;45.650;9.612;2024-03-02T05:10:17;98365.09;;;8.97;77.43
69796;BME280;57073;45.650;9.612;2024-03-02T05:15:18;98376.72;;;9.02;76.87
69796;BME280;57073;45.650;9.612;2024-03-02T05:20:18;98365.72;;;9.04;76.49
69796;BME280;57073;45.650;9.612;2024-03-02T05:25:19;98378.91;;;9.05;76.45
69796;BME280;57073;45.650;9.612;2024-03-02T05:30:19;98372.41;;;9.01;77.13
69796;BME280;57073;45.650;9.612;2024-03-02T05:35:19;98384.97;;;8.96;76.66
69796;BME280;57073;45.650;9.612;2024-03-02T05:40:20;98383.66;;;8.98;76.63
69796;BME280;57073;45.650;9.612;2024-03-02T05:45:21;98386.84;;;8.95;75.98
69796;BME280;57073;45.650;9.612;2024-03-02T05:50:21;98395.53;;;8.85;76.69
69796;BME280;57073;45.650;9.612;2024-03-02T05:55:21;98392.63;;;8.87;76.96
69796;BME280;57073;45.650;9.612;2024-03-02T06:00:22;98401.25;;;8.89;76.17
69796;BME280;57073;45.650;9.612;2024-03-02T06:05:23;98405.41;;;8.80;77.83
69796;BME280;57073;45.650;9.612;2024-03-02T06:10:23;98413.31;;;8.86;78.28
69796;BME280;57073;45.650;9.612;2024-03-02T06:15:23;98409.25;;;8.84;78.25
69796;BME280;57073;45.650;9.612;2024-03-02T06:20:24;98406.50;;;8.79;78.25
69796;BME280;57073;45.650;9.612;2024-03-02T06:25:26;98418.13;;;8.84;78.20
69796;BME280;57073;45.650;9.612;2024-03-02T06:30:27;98419.50;;;8.87;78.83
69796;BME280;57073;45.650;9.612;2024-03-02T06:35:27;98439.00;;;8.94;78.40
69796;BME280;57073;45.650;9.612;2024-03-02T06:40:28;98437.69;;;8.97;78.78
69796;BME280;57073;45.650;9.612;2024-03-02T06:45:28;98447.63;;;8.96;78.10
69796;BME280;57073;45.650;9.612;2024-03-02T06:50:30;98447.69;;;9.01;78.14
69796;BME280;57073;45.650;9.612;2024-03-02T06:55:31;98461.47;;;9.05;78.64
69796;BME280;57073;45.650;9.612;2024-03-02T07:00:31;98458.59;;;9.12;78.03
69796;BME280;57073;45.650;9.612;2024-03-02T07:05:31;98466.56;;;9.23;77.55
69796;BME280;57073;45.650;9.612;2024-03-02T07:10:32;98467.88;;;9.21;78.31
69796;BME280;57073;45.650;9.612;2024-03-02T07:15:32;98477.00;;;9.20;77.99
69796;BME280;57073;45.650;9.612;2024-03-02T07:20:51;98484.66;;;9.28;77.77
69796;BME280;57073;45.650;9.612;2024-03-02T07:25:51;98484.28;;;9.41;77.20
69796;BME280;57073;45.650;9.612;2024-03-02T07:31:02;98490.22;;;9.43;77.16
69796;BME280;57073;45.650;9.612;2024-03-02T07:36:03;98495.63;;;9.43;78.10
69796;BME280;57073;45.650;9.612;2024-03-02T07:41:03;98494.88;;;9.48;77.47
69796;BME280;57073;45.650;9.612;2024-03-02T07:46:04;98508.91;;;9.50;77.16
69796;BME280;57073;45.650;9.612;2024-03-02T07:51:06;98514.03;;;9.52;77.01
69796;BME280;57073;45.650;9.612;2024-03-02T07:56:06;98519.50;;;9.57;76.76
69796;BME280;57073;45.650;9.612;2024-03-02T08:01:07;98516.88;;;9.62;76.47
69796;BME280;57073;45.650;9.612;2024-03-02T08:06:07;98525.00;;;9.67;75.17
69796;BME280;57073;45.650;9.612;2024-03-02T08:11:08;98529.88;;;9.70;74.85
69796;BME280;57073;45.650;9.612;2024-03-02T08:16:08;98529.38;;;9.73;75.70
69796;BME280;57073;45.650;9.612;2024-03-02T08:21:09;98528.38;;;9.79;74.76
69796;BME280;57073;45.650;9.612;2024-03-02T08:26:10;98530.34;;;9.84;74.80
69796;BME280;57073;45.650;9.612;2024-03-02T08:31:10;98538.41;;;9.84;74.77
69796;BME280;57073;45.650;9.612;2024-03-02T08:36:11;98541.97;;;9.90;74.34
69796;BME280;57073;45.650;9.612;2024-03-02T08:41:11;98543.16;;;9.99;73.84
69796;BME280;57073;45.650;9.612;2024-03-02T08:46:14;98558.38;;;9.88;72.53
69796;BME280;57073;45.650;9.612;2024-03-02T08:51:14;98556.75;;;9.87;71.89
69796;BME280;57073;45.650;9.612;2024-03-02T08:56:14;98554.94;;;9.93;72.25
69796;BME280;57073;45.650;9.612;2024-03-02T09:01:16;98559.16;;;9.83;73.18
69796;BME280;57073;45.650;9.612;2024-03-02T09:06:17;98556.75;;;9.87;73.44
69796;BME280;57073;45.650;9.612;2024-03-02T09:11:17;98559.09;;;9.61;73.79
69796;BME280;57073;45.650;9.612;2024-03-02T09:16:18;98571.81;;;9.66;73.89
69796;BME280;57073;45.650;9.612;2024-03-02T09:21:19;98565.31;;;9.62;75.28
69796;BME280;57073;45.650;9.612;2024-03-02T09:26:20;98567.41;;;9.60;74.88
69796;BME280;57073;45.650;9.612;2024-03-02T09:31:20;98572.78;;;9.77;74.26
69796;BME280;57073;45.650;9.612;2024-03-02T09:36:22;98572.16;;;9.70;75.00
69796;BME280;57073;45.650;9.612;2024-03-02T09:41:22;98575.34;;;9.89;74.76
69796;BME280;57073;45.650;9.612;2024-03-02T09:46:23;98579.84;;;10.05;73.44
69796;BME280;57073;45.650;9.612;2024-03-02T09:51:23;98581.81;;;10.10;73.77
69796;BME280;57073;45.650;9.612;2024-03-02T09:56:24;98583.50;;;9.94;73.38
69796;BME280;57073;45.650;9.612;2024-03-02T10:01:24;98586.63;;;10.08;72.98
69796;BME280;57073;45.650;9.612;2024-03-02T10:06:26;98573.59;;;9.77;73.18
69796;BME280;57073;45.650;9.612;2024-03-02T10:16:28;98578.41;;;9.75;73.93
69796;BME280;57073;45.650;9.612;2024-03-02T10:21:28;98576.09;;;10.06;73.54
69796;BME280;57073;45.650;9.612;2024-03-02T10:26:29;98590.13;;;10.08;73.60
69796;BME280;57073;45.650;9.612;2024-03-02T10:31:30;98575.63;;;10.09;72.90
69796;BME280;57073;45.650;9.612;2024-03-02T10:36:34;98580.44;;;10.07;73.71
69796;BME280;57073;45.650;9.612;2024-03-02T10:41:37;98582.69;;;9.93;72.35
69796;BME280;57073;45.650;9.612;2024-03-02T10:46:38;98568.97;;;9.73;74.42
69796;BME280;57073;45.650;9.612;2024-03-02T10:51:38;98568.66;;;9.91;73.87
69796;BME280;57073;45.650;9.612;2024-03-02T10:56:44;98546.38;;;10.23;72.77
69796;BME280;57073;45.650;9.612;2024-03-02T11:01:47;98564.16;;;9.97;73.51
69796;BME280;57073;45.650;9.612;2024-03-02T11:06:51;98563.13;;;10.25;71.99
69796;BME280;57073;45.650;9.612;2024-03-02T11:17:14;98563.91;;;9.98;72.73
69796;BME280;57073;45.650;9.612;2024-03-02T11:22:19;98560.88;;;10.17;71.58
69796;BME280;57073;45.650;9.612;2024-03-02T11:32:55;98572.38;;;10.07;71.39
69796;BME280;57073;45.650;9.612;2024-03-02T11:37:55;98563.25;;;10.13;70.20
69796;BME280;57073;45.650;9.612;2024-03-02T11:43:02;98562.88;;;10.27;70.94
69796;BME280;57073;45.650;9.612;2024-03-02T11:48:05;98557.94;;;10.18;71.86
69796;BME280;57073;45.650;9.612;2024-03-02T11:53:08;98550.91;;;10.17;72.81
69796;BME280;57073;45.650;9.612;2024-03-02T11:58:08;98546.69;;;10.27;72.10
69796;BME280;57073;45.650;9.612;2024-03-02T12:03:13;98544.47;;;10.18;72.69
69796;BME280;57073;45.650;9.612;2024-03-02T12:08:13;98544.72;;;10.17;73.50
69796;BME280;57073;45.650;9.612;2024-03-02T12:13:14;98537.97;;;10.14;74.00
69796;BME280;57073;45.650;9.612;2024-03-02T12:18:14;98536.66;;;9.73;73.54
69796;BME280;57073;45.650;9.612;2024-03-02T12:23:14;98529.88;;;9.70;75.36
69796;BME280;57073;45.650;9.612;2024-03-02T12:28:15;98530.25;;;9.57;75.03
69796;BME280;57073;45.650;9.612;2024-03-02T12:33:16;98526.56;;;9.63;75.58
69796;BME280;57073;45.650;9.612;2024-03-02T12:38:17;98522.91;;;9.52;75.90
69796;BME280;57073;45.650;9.612;2024-03-02T12:43:17;98516.59;;;9.63;75.73
69796;BME280;57073;45.650;9.612;2024-03-02T12:48:18;98513.25;;;9.73;74.65
69796;BME280;57073;45.650;9.612;2024-03-02T12:53:18;98502.56;;;9.61;76.28
69796;BME280;57073;45.650;9.612;2024-03-02T12:58:20;98516.16;;;9.72;75.27
69796;BME280;57073;45.650;9.612;2024-03-02T13:03:23;98523.88;;;9.63;74.90
69796;BME280;57073;45.650;9.612;2024-03-02T13:08:24;98510.91;;;9.60;76.70
69796;BME280;57073;45.650;9.612;2024-03-02T13:13:24;98513.50;;;9.33;76.85
69796;BME280;57073;45.650;9.612;2024-03-02T13:18:25;98512.84;;;9.42;76.26
69796;BME280;57073;45.650;9.612;2024-03-02T13:23:26;98510.56;;;9.34;76.82
69796;BME280;57073;45.650;9.612;2024-03-02T13:28:27;98506.66;;;9.25;78.29
69796;BME280;57073;45.650;9.612;2024-03-02T13:33:27;98511.50;;;9.45;77.40
69796;BME280;57073;45.650;9.612;2024-03-02T13:38:28;98515.47;;;9.59;76.87
69796;BME280;57073;45.650;9.612;2024-03-02T13:43:28;98517.09;;;9.38;78.35
69796;BME280;57073;45.650;9.612;2024-03-02T13:48:32;98517.03;;;9.55;78.02
69796;BME280;57073;45.650;9.612;2024-03-02T13:53:32;98509.06;;;9.43;77.70
69796;BME280;57073;45.650;9.612;2024-03-02T13:58:32;98503.50;;;9.28;77.98
69796;BME280;57073;45.650;9.612;2024-03-02T14:03:33;98513.78;;;9.14;78.97
69796;BME280;57073;45.650;9.612;2024-03-02T14:08:33;98508.06;;;9.11;78.65
69796;BME280;57073;45.650;9.612;2024-03-02T14:13:36;98500.47;;;9.24;76.48
69796;BME280;57073;45.650;9.612;2024-03-02T14:18:36;98508.63;;;9.13;78.35
69796;BME280;57073;45.650;9.612;2024-03-02T14:23:36;98509.91;;;9.27;78.77
69796;BME280;57073;45.650;9.612;2024-03-02T14:28:37;98505.50;;;9.38;78.34
69796;BME280;57073;45.650;9.612;2024-03-02T14:33:37;98505.53;;;9.21;79.50
69796;BME280;57073;45.650;9.612;2024-03-02T14:38:38;98493.13;;;9.20;79.85
69796;BME280;57073;45.650;9.612;2024-03-02T14:43:39;98491.34;;;9.25;78.83
69796;BME280;57073;45.650;9.612;2024-03-02T14:48:39;98487.75;;;9.37;78.10
69796;BME280;57073;45.650;9.612;2024-03-02T14:53:40;98485.56;;;9.56;76.64
69796;BME280;57073;45.650;9.612;2024-03-02T14:58:40;98489.47;;;9.26;77.36
69796;BME280;57073;45.650;9.612;2024-03-02T15:03:41;98490.44;;;9.37;76.46
69796;BME280;57073;45.650;9.612;2024-03-02T15:08:41;98476.41;;;9.35;77.41
69796;BME280;57073;45.650;9.612;2024-03-02T15:13:42;98462.81;;;9.69;76.85
69796;BME280;57073;45.650;9.612;2024-03-02T15:18:42;98475.59;;;9.56;77.07
69796;BME280;57073;45.650;9.612;2024-03-02T15:23:43;98485.44;;;9.68;76.12
69796;BME280;57073;45.650;9.612;2024-03-02T15:28:43;98488.25;;;9.56;76.97
69796;BME280;57073;45.650;9.612;2024-03-02T15:33:44;98492.34;;;9.41;76.51
69796;BME280;57073;45.650;9.612;2024-03-02T15:38:44;98477.41;;;9.51;76.12
69796;BME280;57073;45.650;9.612;2024-03-02T15:43:45;98486.31;;;9.73;75.62
69796;BME280;57073;45.650;9.612;2024-03-02T15:48:47;98481.44;;;9.48;77.30
69796;BME280;57073;45.650;9.612;2024-03-02T15:53:47;98486.94;;;9.19;77.00
69796;BME280;57073;45.650;9.612;2024-03-02T15:58:47;98486.50;;;9.44;76.75
69796;BME280;57073;45.650;9.612;2024-03-02T16:03:48;98494.31;;;9.46;76.98
69796;BME280;57073;45.650;9.612;2024-03-02T16:08:48;98495.28;;;9.40;77.39
69796;BME280;57073;45.650;9.612;2024-03-02T16:13:48;98499.44;;;9.08;76.89
69796;BME280;57073;45.650;9.612;2024-03-02T16:18:49;98500.31;;;9.31;77.44
69796;BME280;57073;45.650;9.612;2024-03-02T16:23:49;98492.59;;;9.40;77.43
69796;BME280;57073;45.650;9.612;2024-03-02T16:28:50;98497.66;;;9.36;78.35
69796;BME280;57073;45.650;9.612;2024-03-02T16:33:50;98494.25;;;9.63;76.75
69796;BME280;57073;45.650;9.612;2024-03-02T16:38:50;98505.50;;;9.60;76.53
69796;BME280;57073;45.650;9.612;2024-03-02T16:43:51;98500.47;;;9.24;77.11
69796;BME280;57073;45.650;9.612;2024-03-02T16:48:51;98499.69;;;8.90;79.30
69796;BME280;57073;45.650;9.612;2024-03-02T16:53:51;98503.91;;;9.20;78.64
69796;BME280;57073;45.650;9.612;2024-03-02T16:58:52;98513.31;;;9.39;78.33
69796;BME280;57073;45.650;9.612;2024-03-02T17:03:52;98516.22;;;9.16;79.25
69796;BME280;57073;45.650;9.612;2024-03-02T17:08:52;98514.00;;;9.13;78.63
69796;BME280;57073;45.650;9.612;2024-03-02T17:13:53;98517.63;;;9.01;78.82
69796;BME280;57073;45.650;9.612;2024-03-02T17:18:57;98520.06;;;9.03;80.02
69796;BME280;57073;45.650;9.612;2024-03-02T17:23:58;98509.84;;;8.88;80.90
69796;BME280;57073;45.650;9.612;2024-03-02T17:28:58;98515.97;;;8.66;81.30
69796;BME280;57073;45.650;9.612;2024-03-02T17:33:58;98524.59;;;8.68;81.68
69796;BME280;57073;45.650;9.612;2024-03-02T17:38:59;98521.50;;;8.77;81.86
69796;BME280;57073;45.650;9.612;2024-03-02T17:43:59;98521.19;;;8.73;81.84
69796;BME280;57073;45.650;9.612;2024-03-02T17:48:59;98526.78;;;8.88;82.02
69796;BME280;57073;45.650;9.612;2024-03-02T17:54:00;98540.13;;;8.95;80.93
69796;BME280;57073;45.650;9.612;2024-03-02T17:59:00;98537.38;;;8.78;81.90
69796;BME280;57073;45.650;9.612;2024-03-02T18:04:01;98547.97;;;8.85;81.13
69796;BME280;57073;45.650;9.612;2024-03-02T18:09:01;98544.16;;;8.81;82.17
69796;BME280;57073;45.650;9.612;2024-03-02T18:14:03;98547.41;;;8.83;82.08
69796;BME280;57073;45.650;9.612;2024-03-02T18:19:03;98556.25;;;8.95;80.88
69796;BME280;57073;45.650;9.612;2024-03-02T18:24:04;98554.50;;;8.89;81.75
69796;BME280;57073;45.650;9.612;2024-03-02T18:29:05;98548.75;;;8.51;83.59
69796;BME280;57073;45.650;9.612;2024-03-02T18:34:08;98558.78;;;8.56;83.40
69796;BME280;57073;45.650;9.612;2024-03-02T18:39:09;98546.16;;;8.57;84.53
69796;BME280;57073;45.650;9.612;2024-03-02T18:44:10;98548.06;;;8.73;83.35
69796;BME280;57073;45.650;9.612;2024-03-02T18:49:10;98548.91;;;8.45;84.13
69796;BME280;57073;45.650;9.612;2024-03-02T18:54:11;98541.59;;;8.57;83.83
69796;BME280;57073;45.650;9.612;2024-03-02T18:59:11;98546.69;;;8.42;83.85
69796;BME280;57073;45.650;9.612;2024-03-02T19:04:12;98527.56;;;8.38;84.28
69796;BME280;57073;45.650;9.612;2024-03-02T19:09:12;98523.78;;;8.68;82.90
69796;BME280;57073;45.650;9.612;2024-03-02T19:14:13;98511.06;;;8.46;83.19
69796;BME280;57073;45.650;9.612;2024-03-02T19:19:13;98530.09;;;8.45;84.00
69796;BME280;57073;45.650;9.612;2024-03-02T19:24:15;98515.22;;;8.25;84.02
69796;BME280;57073;45.650;9.612;2024-03-02T19:29:15;98524.53;;;8.35;83.47
69796;BME280;57073;45.650;9.612;2024-03-02T19:34:15;98533.34;;;8.47;82.98
69796;BME280;57073;45.650;9.612;2024-03-02T19:39:17;98541.88;;;8.44;82.76
69796;BME280;57073;45.650;9.612;2024-03-02T19:44:24;98552.81;;;8.54;81.72
69796;BME280;57073;45.650;9.612;2024-03-02T19:49:26;98556.03;;;8.68;80.67
69796;BME280;57073;45.650;9.612;2024-03-02T19:54:26;98557.91;;;8.67;80.07
69796;BME280;57073;45.650;9.612;2024-03-02T19:59:27;98551.97;;;8.82;79.41
69796;BME280;57073;45.650;9.612;2024-03-02T20:04:27;98561.22;;;8.58;79.83
69796;BME280;57073;45.650;9.612;2024-03-02T20:09:28;98562.22;;;8.68;79.05
69796;BME280;57073;45.650;9.612;2024-03-02T20:14:28;98572.63;;;8.65;79.42
69796;BME280;57073;45.650;9.612;2024-03-02T20:19:28;98560.09;;;8.70;78.70
69796;BME280;57073;45.650;9.612;2024-03-02T20:24:29;98564.22;;;8.44;79.89
69796;BME280;57073;45.650;9.612;2024-03-02T20:29:29;98546.84;;;8.35;79.62
69796;BME280;57073;45.650;9.612;2024-03-02T20:34:30;98555.59;;;8.59;78.61
69796;BME280;57073;45.650;9.612;2024-03-02T20:39:30;98550.63;;;8.51;79.02
69796;BME280;57073;45.650;9.612;2024-03-02T20:44:31;98560.63;;;8.39;80.00
69796;BME280;57073;45.650;9.612;2024-03-02T20:49:31;98566.16;;;8.49;79.50
69796;BME280;57073;45.650;9.612;2024-03-02T20:54:31;98560.88;;;8.54;79.40
69796;BME280;57073;45.650;9.612;2024-03-02T20:59:33;98568.72;;;8.56;78.63
69796;BME280;57073;45.650;9.612;2024-03-02T21:04:33;98551.91;;;8.48;80.21
69796;BME280;57073;45.650;9.612;2024-03-02T21:09:34;98526.16;;;8.36;80.55
69796;BME280;57073;45.650;9.612;2024-03-02T21:14:34;98530.09;;;8.45;80.59
69796;BME280;57073;45.650;9.612;2024-03-02T21:19:37;98528.56;;;8.20;81.49
69796;BME280;57073;45.650;9.612;2024-03-02T21:24:37;98524.03;;;8.21;81.42
69796;BME280;57073;45.650;9.612;2024-03-02T21:29:38;98536.81;;;8.30;82.11
69796;BME280;57073;45.650;9.612;2024-03-02T21:34:40;98539.94;;;8.39;81.65
69796;BME280;57073;45.650;9.612;2024-03-02T21:39:40;98542.19;;;8.30;81.35
69796;BME280;57073;45.650;9.612;2024-03-02T21:44:41;98542.97;;;8.43;81.33
69796;BME280;57073;45.650;9.612;2024-03-02T21:49:41;98552.63;;;8.44;80.86
69796;BME280;57073;45.650;9.612;2024-03-02T21:54:41;98544.56;;;8.44;81.01
69796;BME280;57073;45.650;9.612;2024-03-02T21:59:42;98533.13;;;8.48;79.98
69796;BME280;57073;45.650;9.612;2024-03-02T22:04:42;98552.72;;;8.49;79.77
69796;BME280;57073;45.650;9.612;2024-03-02T22:09:42;98542.34;;;8.86;79.52
69796;BME280;57073;45.650;9.612;2024-03-02T22:14:43;98534.94;;;8.77;78.74
69796;BME280;57073;45.650;9.612;2024-03-02T22:19:43;98529.06;;;8.80;79.17
69796;BME280;57073;45.650;9.612;2024-03-02T22:24:43;98537.13;;;8.63;79.51
69796;BME280;57073;45.650;9.612;2024-03-02T22:29:44;98536.16;;;8.69;79.14
69796;BME280;57073;45.650;9.612;2024-03-02T22:34:44;98543.84;;;8.94;78.40
69796;BME280;57073;45.650;9.612;2024-03-02T22:39:44;98544.53;;;8.73;78.48
69796;BME280;57073;45.650;9.612;2024-03-02T22:44:45;98545.44;;;8.61;78.70
69796;BME280;57073;45.650;9.612;2024-03-02T22:49:45;98546.22;;;8.62;78.86
69796;BME280;57073;45.650;9.612;2024-03-02T22:54:45;98539.47;;;8.59;78.10
69796;BME280;57073;45.650;9.612;2024-03-02T22:59:49;98528.16;;;8.57;78.46
69796;BME280;57073;45.650;9.612;2024-03-02T23:04:50;98546.66;;;8.70;76.96
69796;BME280;57073;45.650;9.612;2024-03-02T23:09:51;98554.34;;;8.79;77.57
69796;BME280;57073;45.650;9.612;2024-03-02T23:14:51;98556.25;;;8.95;76.41
69796;BME280;57073;45.650;9.612;2024-03-02T23:19:52;98542.91;;;9.00;76.91
69796;BME280;57073;45.650;9.612;2024-03-02T23:24:52;98527.94;;;8.76;77.25
69796;BME280;57073;45.650;9.612;2024-03-02T23:29:52;98525.47;;;8.57;78.72
69796;BME280;57073;45.650;9.612;2024-03-02T23:34:53;98522.13;;;8.67;78.53
69796;BME280;57073;45.650;9.612;2024-03-02T23:39:54;98514.31;;;8.65;78.72
69796;BME280;57073;45.650;9.612;2024-03-02T23:45:03;98511.25;;;8.57;78.05
69796;BME280;57073;45.650;9.612;2024-03-02T23:50:05;98518.06;;;8.81;77.54
69796;BME280;57073;45.650;9.612;2024-03-02T23:55:05;98518.88;;;8.65;77.91
